sensor_id;sensor_type;location;lat;lon;timestamp;P1;durP1;ratioP1;P2;durP2;ratioP2
84472;SDS011;74698;42.992;0.116;2024-01-30T00:01:30;2.83;;;1.45;;
84472;SDS011;74698;42.992;0.116;2024-01-30T00:03:56;2.47;;;1.50;;
84472;SDS011;74698;42.992;0.116;2024-01-30T00:06:22;6.45;;;2.05;;
84472;SDS011;74698;42.992;0.116;2024-01-30T00:08:49;3.58;;;2.20;;
84472;SDS011;74698;42.992;0.116;2024-01-30T00:11:15;2.10;;;1.35;;
84472;SDS011;74698;42.992;0.116;2024-01-30T00:13:41;3.10;;;2.25;;
84472;SDS011;74698;42.992;0.116;2024-01-30T00:16:07;5.25;;;2.60;;
84472;SDS011;74698;42.992;0.116;2024-01-30T00:18:34;3.17;;;1.90;;
84472;SDS011;74698;42.992;0.116;2024-01-30T00:21:00;4.03;;;2.30;;
84472;SDS011;74698;42.992;0.116;2024-01-30T00:23:26;4.32;;;2.92;;
84472;SDS011;74698;42.992;0.116;2024-01-30T00:25:52;3.78;;;2.53;;
84472;SDS011;74698;42.992;0.116;2024-01-30T00:28:18;4.18;;;2.40;;
84472;SDS011;74698;42.992;0.116;2024-01-30T00:30:44;4.40;;;2.63;;
84472;SDS011;74698;42.992;0.116;2024-01-30T00:33:10;4.35;;;2.50;;
84472;SDS011;74698;42.992;0.116;2024-01-30T00:35:36;4.78;;;2.58;;
84472;SDS011;74698;42.992;0.116;2024-01-30T00:38:02;3.20;;;2.22;;
84472;SDS011;74698;42.992;0.116;2024-01-30T00:40:28;3.17;;;1.80;;
84472;SDS011;74698;42.992;0.116;2024-01-30T00:42:54;4.60;;;2.50;;
84472;SDS011;74698;42.992;0.116;2024-01-30T00:45:20;3.63;;;2.13;;
84472;SDS011;74698;42.992;0.116;2024-01-30T00:47:46;3.90;;;2.40;;
84472;SDS011;74698;42.992;0.116;2024-01-30T00:50:12;4.97;;;2.00;;
84472;SDS011;74698;42.992;0.116;2024-01-30T00:52:38;3.30;;;2.25;;
84472;SDS011;74698;42.992;0.116;2024-01-30T00:55:06;3.13;;;1.88;;
84472;SDS011;74698;42.992;0.116;2024-01-30T00:57:32;3.55;;;2.03;;
84472;SDS011;74698;42.992;0.116;2024-01-30T00:59:58;4.10;;;2.33;;
84472;SDS011;74698;42.992;0.116;2024-01-30T01:02:24;2.35;;;1.58;;
84472;SDS011;74698;42.992;0.116;2024-01-30T01:04:50;5.70;;;2.63;;
84472;SDS011;74698;42.992;0.116;2024-01-30T01:07:16;4.22;;;2.13;;
84472;SDS011;74698;42.992;0.116;2024-01-30T01:09:42;3.42;;;2.30;;
84472;SDS011;74698;42.992;0.116;2024-01-30T01:12:08;3.40;;;2.50;;
84472;SDS011;74698;42.992;0.116;2024-01-30T01:14:34;3.13;;;2.45;;
84472;SDS011;74698;42.992;0.116;2024-01-30T01:17:01;4.25;;;2.17;;
84472;SDS011;74698;42.992;0.116;2024-01-30T01:19:27;5.30;;;2.35;;
84472;SDS011;74698;42.992;0.116;2024-01-30T01:21:53;3.30;;;1.70;;
84472;SDS011;74698;42.992;0.116;2024-01-30T01:24:19;3.38;;;2.20;;
84472;SDS011;74698;42.992;0.116;2024-01-30T01:26:45;3.20;;;1.92;;
84472;SDS011;74698;42.992;0.116;2024-01-30T01:29:11;3.67;;;2.05;;
84472;SDS011;74698;42.992;0.116;2024-01-30T01:31:37;6.05;;;2.30;;
84472;SDS011;74698;42.992;0.116;2024-01-30T01:34:11;3.50;;;2.40;;
84472;SDS011;74698;42.992;0.116;2024-01-30T01:36:37;3.40;;;1.80;;
84472;SDS011;74698;42.992;0.116;2024-01-30T01:39:03;4.40;;;3.38;;
84472;SDS011;74698;42.992;0.116;2024-01-30T01:41:32;5.07;;;2.35;;
84472;SDS011;74698;42.992;0.116;2024-01-30T01:43:59;3.53;;;2.30;;
84472;SDS011;74698;42.992;0.116;2024-01-30T01:46:29;3.80;;;2.45;;
84472;SDS011;74698;42.992;0.116;2024-01-30T01:48:56;3.10;;;1.98;;
84472;SDS011;74698;42.992;0.116;2024-01-30T01:51:23;4.05;;;2.28;;
84472;SDS011;74698;42.992;0.116;2024-01-30T01:53:50;3.63;;;2.20;;
84472;SDS011;74698;42.992;0.116;2024-01-30T01:56:16;3.08;;;1.58;;
84472;SDS011;74698;42.992;0.116;2024-01-30T01:58:42;3.60;;;2.17;;
84472;SDS011;74698;42.992;0.116;2024-01-30T02:01:10;3.33;;;1.88;;
84472;SDS011;74698;42.992;0.116;2024-01-30T02:03:36;5.03;;;2.25;;
84472;SDS011;74698;42.992;0.116;2024-01-30T02:06:03;5.50;;;2.30;;
84472;SDS011;74698;42.992;0.116;2024-01-30T02:08:30;4.03;;;2.10;;
84472;SDS011;74698;42.992;0.116;2024-01-30T02:10:56;3.28;;;2.40;;
84472;SDS011;74698;42.992;0.116;2024-01-30T02:13:22;4.18;;;2.10;;
84472;SDS011;74698;42.992;0.116;2024-01-30T02:15:51;2.92;;;1.85;;
84472;SDS011;74698;42.992;0.116;2024-01-30T02:18:19;4.78;;;2.75;;
84472;SDS011;74698;42.992;0.116;2024-01-30T02:20:45;4.22;;;2.20;;
84472;SDS011;74698;42.992;0.116;2024-01-30T02:23:11;6.00;;;2.42;;
84472;SDS011;74698;42.992;0.116;2024-01-30T02:25:38;3.60;;;2.13;;
84472;SDS011;74698;42.992;0.116;2024-01-30T02:28:09;2.43;;;1.77;;
84472;SDS011;74698;42.992;0.116;2024-01-30T02:30:37;8.07;;;2.47;;
84472;SDS011;74698;42.992;0.116;2024-01-30T02:33:03;3.20;;;1.40;;
84472;SDS011;74698;42.992;0.116;2024-01-30T02:35:29;3.35;;;2.05;;
84472;SDS011;74698;42.992;0.116;2024-01-30T02:37:55;3.58;;;2.45;;
84472;SDS011;74698;42.992;0.116;2024-01-30T02:40:21;3.45;;;1.88;;
84472;SDS011;74698;42.992;0.116;2024-01-30T02:42:47;3.85;;;2.15;;
84472;SDS011;74698;42.992;0.116;2024-01-30T02:45:13;4.00;;;2.03;;
84472;SDS011;74698;42.992;0.116;2024-01-30T02:47:39;3.45;;;2.22;;
84472;SDS011;74698;42.992;0.116;2024-01-30T02:50:06;4.32;;;1.65;;
84472;SDS011;74698;42.992;0.116;2024-01-30T02:52:32;3.92;;;1.83;;
84472;SDS011;74698;42.992;0.116;2024-01-30T02:54:58;3.05;;;1.48;;
84472;SDS011;74698;42.992;0.116;2024-01-30T02:57:24;2.05;;;1.52;;
84472;SDS011;74698;42.992;0.116;2024-01-30T02:59:50;3.17;;;1.50;;
84472;SDS011;74698;42.992;0.116;2024-01-30T03:02:17;2.70;;;1.48;;
84472;SDS011;74698;42.992;0.116;2024-01-30T03:04:43;5.28;;;2.83;;
84472;SDS011;74698;42.992;0.116;2024-01-30T03:07:09;2.75;;;1.50;;
84472;SDS011;74698;42.992;0.116;2024-01-30T03:09:36;2.83;;;1.70;;
84472;SDS011;74698;42.992;0.116;2024-01-30T03:12:02;4.07;;;1.63;;
84472;SDS011;74698;42.992;0.116;2024-01-30T03:14:30;3.50;;;1.90;;
84472;SDS011;74698;42.992;0.116;2024-01-30T03:16:56;2.65;;;1.50;;
84472;SDS011;74698;42.992;0.116;2024-01-30T03:19:22;3.38;;;1.88;;
84472;SDS011;74698;42.992;0.116;2024-01-30T03:21:48;2.83;;;1.58;;
84472;SDS011;74698;42.992;0.116;2024-01-30T03:24:14;3.00;;;1.83;;
84472;SDS011;74698;42.992;0.116;2024-01-30T03:26:40;2.42;;;1.73;;
84472;SDS011;74698;42.992;0.116;2024-01-30T03:29:06;3.28;;;1.92;;
84472;SDS011;74698;42.992;0.116;2024-01-30T03:31:32;3.58;;;1.80;;
84472;SDS011;74698;42.992;0.116;2024-01-30T03:33:58;3.42;;;1.70;;
84472;SDS011;74698;42.992;0.116;2024-01-30T03:36:24;4.40;;;1.83;;
84472;SDS011;74698;42.992;0.116;2024-01-30T03:38:50;3.33;;;1.88;;
84472;SDS011;74698;42.992;0.116;2024-01-30T03:41:16;4.78;;;2.15;;
84472;SDS011;74698;42.992;0.116;2024-01-30T03:43:42;3.13;;;1.92;;
84472;SDS011;74698;42.992;0.116;2024-01-30T03:46:09;4.15;;;1.80;;
84472;SDS011;74698;42.992;0.116;2024-01-30T03:48:35;3.17;;;1.60;;
84472;SDS011;74698;42.992;0.116;2024-01-30T03:51:01;2.60;;;2.03;;
84472;SDS011;74698;42.992;0.116;2024-01-30T03:53:27;3.58;;;1.63;;
84472;SDS011;74698;42.992;0.116;2024-01-30T03:55:52;2.25;;;1.38;;
84472;SDS011;74698;42.992;0.116;2024-01-30T03:58:19;3.33;;;2.00;;
84472;SDS011;74698;42.992;0.116;2024-01-30T04:00:45;3.17;;;1.83;;
84472;SDS011;74698;42.992;0.116;2024-01-30T04:03:11;3.40;;;1.63;;
84472;SDS011;74698;42.992;0.116;2024-01-30T04:05:37;3.55;;;1.52;;
84472;SDS011;74698;42.992;0.116;2024-01-30T04:08:03;4.22;;;1.95;;
84472;SDS011;74698;42.992;0.116;2024-01-30T04:10:29;2.42;;;1.48;;
84472;SDS011;74698;42.992;0.116;2024-01-30T04:12:55;2.67;;;1.60;;
84472;SDS011;74698;42.992;0.116;2024-01-30T04:15:21;5.15;;;1.90;;
84472;SDS011;74698;42.992;0.116;2024-01-30T04:17:47;3.42;;;2.10;;
84472;SDS011;74698;42.992;0.116;2024-01-30T04:20:13;2.97;;;1.88;;
84472;SDS011;74698;42.992;0.116;2024-01-30T04:22:41;2.97;;;1.90;;
84472;SDS011;74698;42.992;0.116;2024-01-30T04:25:07;4.60;;;2.65;;
84472;SDS011;74698;42.992;0.116;2024-01-30T04:27:33;3.58;;;2.28;;
84472;SDS011;74698;42.992;0.116;2024-01-30T04:29:59;3.42;;;1.98;;
84472;SDS011;74698;42.992;0.116;2024-01-30T04:32:25;4.43;;;2.05;;
84472;SDS011;74698;42.992;0.116;2024-01-30T04:34:52;3.30;;;2.10;;
84472;SDS011;74698;42.992;0.116;2024-01-30T04:37:17;3.53;;;2.60;;
84472;SDS011;74698;42.992;0.116;2024-01-30T04:39:43;4.40;;;2.55;;
84472;SDS011;74698;42.992;0.116;2024-01-30T04:42:09;3.05;;;2.00;;
84472;SDS011;74698;42.992;0.116;2024-01-30T04:44:35;5.47;;;2.10;;
84472;SDS011;74698;42.992;0.116;2024-01-30T04:47:01;4.57;;;2.75;;
84472;SDS011;74698;42.992;0.116;2024-01-30T04:49:28;3.67;;;2.00;;
84472;SDS011;74698;42.992;0.116;2024-01-30T04:51:54;4.95;;;2.88;;
84472;SDS011;74698;42.992;0.116;2024-01-30T04:54:21;3.88;;;1.80;;
84472;SDS011;74698;42.992;0.116;2024-01-30T04:56:47;3.53;;;2.20;;
84472;SDS011;74698;42.992;0.116;2024-01-30T04:59:13;2.75;;;1.60;;
84472;SDS011;74698;42.992;0.116;2024-01-30T05:01:39;6.03;;;1.88;;
84472;SDS011;74698;42.992;0.116;2024-01-30T05:04:07;4.90;;;2.67;;
84472;SDS011;74698;42.992;0.116;2024-01-30T05:06:33;2.33;;;1.50;;
84472;SDS011;74698;42.992;0.116;2024-01-30T05:08:59;4.18;;;2.38;;
84472;SDS011;74698;42.992;0.116;2024-01-30T05:11:25;2.72;;;1.85;;
84472;SDS011;74698;42.992;0.116;2024-01-30T05:13:51;4.53;;;2.60;;
84472;SDS011;74698;42.992;0.116;2024-01-30T05:16:17;4.72;;;2.78;;
84472;SDS011;74698;42.992;0.116;2024-01-30T05:18:43;7.90;;;2.92;;
84472;SDS011;74698;42.992;0.116;2024-01-30T05:21:10;4.15;;;2.05;;
84472;SDS011;74698;42.992;0.116;2024-01-30T05:23:36;3.92;;;2.08;;
84472;SDS011;74698;42.992;0.116;2024-01-30T05:26:02;3.78;;;1.90;;
84472;SDS011;74698;42.992;0.116;2024-01-30T05:28:29;3.67;;;2.33;;
84472;SDS011;74698;42.992;0.116;2024-01-30T05:30:55;3.47;;;2.00;;
84472;SDS011;74698;42.992;0.116;2024-01-30T05:33:21;2.88;;;1.70;;
84472;SDS011;74698;42.992;0.116;2024-01-30T05:35:47;2.80;;;1.63;;
84472;SDS011;74698;42.992;0.116;2024-01-30T05:38:14;2.95;;;1.88;;
84472;SDS011;74698;42.992;0.116;2024-01-30T05:40:41;3.65;;;1.67;;
84472;SDS011;74698;42.992;0.116;2024-01-30T05:43:07;4.00;;;2.38;;
84472;SDS011;74698;42.992;0.116;2024-01-30T05:45:33;4.13;;;1.80;;
84472;SDS011;74698;42.992;0.116;2024-01-30T05:48:00;4.55;;;2.45;;
84472;SDS011;74698;42.992;0.116;2024-01-30T05:50:26;2.97;;;1.75;;
84472;SDS011;74698;42.992;0.116;2024-01-30T05:52:53;2.95;;;1.92;;
84472;SDS011;74698;42.992;0.116;2024-01-30T05:55:19;4.57;;;1.98;;
84472;SDS011;74698;42.992;0.116;2024-01-30T05:57:45;5.28;;;2.20;;
84472;SDS011;74698;42.992;0.116;2024-01-30T06:00:11;6.35;;;2.28;;
84472;SDS011;74698;42.992;0.116;2024-01-30T06:02:37;3.92;;;2.22;;
84472;SDS011;74698;42.992;0.116;2024-01-30T06:05:03;2.63;;;1.80;;
84472;SDS011;74698;42.992;0.116;2024-01-30T06:07:29;4.78;;;2.15;;
84472;SDS011;74698;42.992;0.116;2024-01-30T06:09:55;3.90;;;2.00;;
84472;SDS011;74698;42.992;0.116;2024-01-30T06:12:21;6.30;;;2.25;;
84472;SDS011;74698;42.992;0.116;2024-01-30T06:14:48;4.00;;;2.00;;
84472;SDS011;74698;42.992;0.116;2024-01-30T06:17:14;4.18;;;1.70;;
84472;SDS011;74698;42.992;0.116;2024-01-30T06:19:40;2.97;;;1.85;;
84472;SDS011;74698;42.992;0.116;2024-01-30T06:22:06;4.15;;;2.13;;
84472;SDS011;74698;42.992;0.116;2024-01-30T06:24:32;3.92;;;2.08;;
84472;SDS011;74698;42.992;0.116;2024-01-30T06:26:59;4.95;;;1.90;;
84472;SDS011;74698;42.992;0.116;2024-01-30T06:29:26;2.20;;;1.65;;
84472;SDS011;74698;42.992;0.116;2024-01-30T06:31:52;4.97;;;2.28;;
84472;SDS011;74698;42.992;0.116;2024-01-30T06:34:18;3.65;;;2.10;;
84472;SDS011;74698;42.992;0.116;2024-01-30T06:36:44;2.70;;;1.30;;
84472;SDS011;74698;42.992;0.116;2024-01-30T06:39:10;3.70;;;1.35;;
84472;SDS011;74698;42.992;0.116;2024-01-30T06:41:36;2.80;;;1.73;;
84472;SDS011;74698;42.992;0.116;2024-01-30T06:44:02;2.60;;;1.50;;
84472;SDS011;74698;42.992;0.116;2024-01-30T06:46:33;3.00;;;1.73;;
84472;SDS011;74698;42.992;0.116;2024-01-30T06:48:59;3.22;;;1.75;;
84472;SDS011;74698;42.992;0.116;2024-01-30T06:51:26;2.30;;;1.83;;
84472;SDS011;74698;42.992;0.116;2024-01-30T06:53:52;4.35;;;2.40;;
84472;SDS011;74698;42.992;0.116;2024-01-30T06:56:18;3.53;;;1.95;;
84472;SDS011;74698;42.992;0.116;2024-01-30T06:58:48;3.58;;;2.15;;
84472;SDS011;74698;42.992;0.116;2024-01-30T07:01:14;2.75;;;1.83;;
84472;SDS011;74698;42.992;0.116;2024-01-30T07:03:40;4.13;;;1.58;;
84472;SDS011;74698;42.992;0.116;2024-01-30T07:06:06;2.72;;;1.50;;
84472;SDS011;74698;42.992;0.116;2024-01-30T07:08:32;4.30;;;2.10;;
84472;SDS011;74698;42.992;0.116;2024-01-30T07:10:58;4.38;;;2.22;;
84472;SDS011;74698;42.992;0.116;2024-01-30T07:13:24;3.28;;;2.10;;
84472;SDS011;74698;42.992;0.116;2024-01-30T07:15:50;3.42;;;1.77;;
84472;SDS011;74698;42.992;0.116;2024-01-30T07:18:16;3.95;;;1.92;;
84472;SDS011;74698;42.992;0.116;2024-01-30T07:20:42;3.50;;;2.70;;
84472;SDS011;74698;42.992;0.116;2024-01-30T07:23:11;3.80;;;2.40;;
84472;SDS011;74698;42.992;0.116;2024-01-30T07:25:39;5.13;;;2.60;;
84472;SDS011;74698;42.992;0.116;2024-01-30T07:28:06;5.25;;;2.35;;
84472;SDS011;74698;42.992;0.116;2024-01-30T07:30:34;4.07;;;2.30;;
84472;SDS011;74698;42.992;0.116;2024-01-30T07:33:00;6.05;;;2.72;;
84472;SDS011;74698;42.992;0.116;2024-01-30T07:35:26;4.70;;;2.80;;
84472;SDS011;74698;42.992;0.116;2024-01-30T07:37:52;5.00;;;2.78;;
84472;SDS011;74698;42.992;0.116;2024-01-30T07:40:18;4.72;;;2.60;;
84472;SDS011;74698;42.992;0.116;2024-01-30T07:42:44;4.95;;;2.35;;
84472;SDS011;74698;42.992;0.116;2024-01-30T07:45:10;2.30;;;1.40;;
84472;SDS011;74698;42.992;0.116;2024-01-30T07:47:36;4.15;;;2.08;;
84472;SDS011;74698;42.992;0.116;2024-01-30T07:50:02;3.08;;;2.22;;
84472;SDS011;74698;42.992;0.116;2024-01-30T07:52:28;1.75;;;1.30;;
84472;SDS011;74698;42.992;0.116;2024-01-30T07:54:54;3.35;;;2.17;;
84472;SDS011;74698;42.992;0.116;2024-01-30T07:57:21;3.47;;;2.05;;
84472;SDS011;74698;42.992;0.116;2024-01-30T07:59:47;3.60;;;2.17;;
84472;SDS011;74698;42.992;0.116;2024-01-30T08:02:13;4.38;;;1.27;;
84472;SDS011;74698;42.992;0.116;2024-01-30T08:04:39;2.60;;;1.63;;
84472;SDS011;74698;42.992;0.116;2024-01-30T08:07:05;3.63;;;2.70;;
84472;SDS011;74698;42.992;0.116;2024-01-30T08:09:31;3.42;;;2.05;;
84472;SDS011;74698;42.992;0.116;2024-01-30T08:11:57;4.07;;;2.80;;
84472;SDS011;74698;42.992;0.116;2024-01-30T08:14:23;3.28;;;1.77;;
84472;SDS011;74698;42.992;0.116;2024-01-30T08:16:49;3.30;;;1.80;;
84472;SDS011;74698;42.992;0.116;2024-01-30T08:19:15;3.70;;;1.88;;
84472;SDS011;74698;42.992;0.116;2024-01-30T08:21:41;4.88;;;2.38;;
84472;SDS011;74698;42.992;0.116;2024-01-30T08:24:07;3.83;;;2.00;;
84472;SDS011;74698;42.992;0.116;2024-01-30T08:26:33;3.42;;;1.92;;
84472;SDS011;74698;42.992;0.116;2024-01-30T08:29:00;2.72;;;1.77;;
84472;SDS011;74698;42.992;0.116;2024-01-30T08:31:26;4.40;;;2.28;;
84472;SDS011;74698;42.992;0.116;2024-01-30T08:33:53;3.70;;;2.22;;
84472;SDS011;74698;42.992;0.116;2024-01-30T08:36:20;4.60;;;2.42;;
84472;SDS011;74698;42.992;0.116;2024-01-30T08:38:46;4.00;;;2.05;;
84472;SDS011;74698;42.992;0.116;2024-01-30T08:41:12;4.53;;;2.20;;
84472;SDS011;74698;42.992;0.116;2024-01-30T08:43:38;6.00;;;2.10;;
84472;SDS011;74698;42.992;0.116;2024-01-30T08:46:04;2.97;;;1.85;;
84472;SDS011;74698;42.992;0.116;2024-01-30T08:48:30;3.28;;;2.08;;
84472;SDS011;74698;42.992;0.116;2024-01-30T08:50:56;2.33;;;1.55;;
84472;SDS011;74698;42.992;0.116;2024-01-30T08:53:22;2.67;;;1.90;;
84472;SDS011;74698;42.992;0.116;2024-01-30T08:55:49;2.92;;;1.50;;
84472;SDS011;74698;42.992;0.116;2024-01-30T08:58:15;3.28;;;1.80;;
84472;SDS011;74698;42.992;0.116;2024-01-30T09:00:44;3.28;;;1.70;;
84472;SDS011;74698;42.992;0.116;2024-01-30T09:03:10;4.47;;;1.77;;
84472;SDS011;74698;42.992;0.116;2024-01-30T09:05:36;3.08;;;2.03;;
84472;SDS011;74698;42.992;0.116;2024-01-30T09:08:02;3.55;;;1.75;;
84472;SDS011;74698;42.992;0.116;2024-01-30T09:10:28;2.72;;;1.30;;
84472;SDS011;74698;42.992;0.116;2024-01-30T09:12:54;4.90;;;1.70;;
84472;SDS011;74698;42.992;0.116;2024-01-30T09:15:20;3.78;;;2.08;;
84472;SDS011;74698;42.992;0.116;2024-01-30T09:17:46;2.83;;;1.75;;
84472;SDS011;74698;42.992;0.116;2024-01-30T09:20:12;2.97;;;1.60;;
84472;SDS011;74698;42.992;0.116;2024-01-30T09:22:38;3.58;;;2.17;;
84472;SDS011;74698;42.992;0.116;2024-01-30T09:25:04;2.80;;;1.58;;
84472;SDS011;74698;42.992;0.116;2024-01-30T09:27:30;3.78;;;1.88;;
84472;SDS011;74698;42.992;0.116;2024-01-30T09:29:56;3.20;;;2.00;;
84472;SDS011;74698;42.992;0.116;2024-01-30T09:32:22;2.78;;;1.92;;
84472;SDS011;74698;42.992;0.116;2024-01-30T09:34:48;3.53;;;2.22;;
84472;SDS011;74698;42.992;0.116;2024-01-30T09:37:14;3.63;;;2.28;;
84472;SDS011;74698;42.992;0.116;2024-01-30T09:39:42;3.60;;;2.05;;
84472;SDS011;74698;42.992;0.116;2024-01-30T09:44:35;4.20;;;1.80;;
84472;SDS011;74698;42.992;0.116;2024-01-30T09:47:02;3.75;;;1.73;;
84472;SDS011;74698;42.992;0.116;2024-01-30T09:49:34;4.60;;;2.10;;
84472;SDS011;74698;42.992;0.116;2024-01-30T09:52:03;4.53;;;2.45;;
84472;SDS011;74698;42.992;0.116;2024-01-30T09:54:31;4.85;;;2.13;;
84472;SDS011;74698;42.992;0.116;2024-01-30T09:56:57;4.43;;;2.17;;
84472;SDS011;74698;42.992;0.116;2024-01-30T09:59:23;4.07;;;2.35;;
84472;SDS011;74698;42.992;0.116;2024-01-30T10:01:50;5.07;;;2.60;;
84472;SDS011;74698;42.992;0.116;2024-01-30T10:04:18;3.78;;;2.40;;
84472;SDS011;74698;42.992;0.116;2024-01-30T10:06:45;3.03;;;2.10;;
84472;SDS011;74698;42.992;0.116;2024-01-30T10:09:11;3.92;;;2.30;;
84472;SDS011;74698;42.992;0.116;2024-01-30T10:11:38;2.85;;;2.00;;
84472;SDS011;74698;42.992;0.116;2024-01-30T10:14:04;3.60;;;2.05;;
84472;SDS011;74698;42.992;0.116;2024-01-30T10:16:30;4.93;;;2.72;;
84472;SDS011;74698;42.992;0.116;2024-01-30T10:18:56;3.55;;;1.85;;
84472;SDS011;74698;42.992;0.116;2024-01-30T10:21:22;4.28;;;1.67;;
84472;SDS011;74698;42.992;0.116;2024-01-30T10:23:49;3.42;;;2.05;;
84472;SDS011;74698;42.992;0.116;2024-01-30T10:26:16;2.38;;;1.65;;
84472;SDS011;74698;42.992;0.116;2024-01-30T10:28:45;2.10;;;1.60;;
84472;SDS011;74698;42.992;0.116;2024-01-30T10:31:16;2.45;;;1.88;;
84472;SDS011;74698;42.992;0.116;2024-01-30T10:33:42;3.92;;;1.60;;
84472;SDS011;74698;42.992;0.116;2024-01-30T10:36:09;2.92;;;1.70;;
84472;SDS011;74698;42.992;0.116;2024-01-30T10:38:38;3.45;;;1.70;;
84472;SDS011;74698;42.992;0.116;2024-01-30T10:41:06;5.78;;;1.83;;
84472;SDS011;74698;42.992;0.116;2024-01-30T10:43:36;3.53;;;2.15;;
84472;SDS011;74698;42.992;0.116;2024-01-30T10:46:17;3.38;;;1.98;;
84472;SDS011;74698;42.992;0.116;2024-01-30T10:48:46;2.22;;;1.85;;
84472;SDS011;74698;42.992;0.116;2024-01-30T10:51:14;3.85;;;2.40;;
84472;SDS011;74698;42.992;0.116;2024-01-30T10:53:40;4.22;;;2.35;;
84472;SDS011;74698;42.992;0.116;2024-01-30T10:56:07;2.45;;;2.00;;
84472;SDS011;74698;42.992;0.116;2024-01-30T10:58:33;4.50;;;2.28;;
84472;SDS011;74698;42.992;0.116;2024-01-30T11:00:59;3.55;;;2.45;;
84472;SDS011;74698;42.992;0.116;2024-01-30T11:03:26;2.33;;;1.90;;
84472;SDS011;74698;42.992;0.116;2024-01-30T11:05:52;3.00;;;2.08;;
84472;SDS011;74698;42.992;0.116;2024-01-30T11:08:24;7.05;;;2.30;;
84472;SDS011;74698;42.992;0.116;2024-01-30T11:10:58;3.92;;;2.63;;
84472;SDS011;74698;42.992;0.116;2024-01-30T11:15:50;3.67;;;2.28;;
84472;SDS011;74698;42.992;0.116;2024-01-30T11:18:23;3.50;;;2.40;;
84472;SDS011;74698;42.992;0.116;2024-01-30T11:20:49;4.80;;;1.88;;
84472;SDS011;74698;42.992;0.116;2024-01-30T11:23:15;2.67;;;1.95;;
84472;SDS011;74698;42.992;0.116;2024-01-30T11:25:43;17.17;;;4.05;;
84472;SDS011;74698;42.992;0.116;2024-01-30T11:28:16;3.70;;;2.40;;
84472;SDS011;74698;42.992;0.116;2024-01-30T11:30:42;2.63;;;2.20;;
84472;SDS011;74698;42.992;0.116;2024-01-30T11:33:09;6.13;;;3.70;;
84472;SDS011;74698;42.992;0.116;2024-01-30T11:35:36;4.13;;;2.60;;
84472;SDS011;74698;42.992;0.116;2024-01-30T11:38:04;3.90;;;2.88;;
84472;SDS011;74698;42.992;0.116;2024-01-30T11:40:31;4.63;;;2.30;;
84472;SDS011;74698;42.992;0.116;2024-01-30T11:42:58;3.58;;;2.55;;
84472;SDS011;74698;42.992;0.116;2024-01-30T11:45:25;10.90;;;5.80;;
84472;SDS011;74698;42.992;0.116;2024-01-30T11:47:52;5.35;;;3.88;;
84472;SDS011;74698;42.992;0.116;2024-01-30T11:50:18;4.50;;;2.58;;
84472;SDS011;74698;42.992;0.116;2024-01-30T11:52:44;4.68;;;2.92;;
84472;SDS011;74698;42.992;0.116;2024-01-30T11:55:10;5.50;;;2.85;;
84472;SDS011;74698;42.992;0.116;2024-01-30T11:57:36;4.88;;;3.05;;
84472;SDS011;74698;42.992;0.116;2024-01-30T12:00:03;4.38;;;2.97;;
84472;SDS011;74698;42.992;0.116;2024-01-30T12:02:35;4.43;;;3.30;;
84472;SDS011;74698;42.992;0.116;2024-01-30T12:05:05;4.82;;;2.92;;
84472;SDS011;74698;42.992;0.116;2024-01-30T12:07:31;4.88;;;2.75;;
84472;SDS011;74698;42.992;0.116;2024-01-30T12:09:57;4.60;;;2.78;;
84472;SDS011;74698;42.992;0.116;2024-01-30T12:12:26;4.43;;;3.15;;
84472;SDS011;74698;42.992;0.116;2024-01-30T12:14:53;3.00;;;2.30;;
84472;SDS011;74698;42.992;0.116;2024-01-30T12:17:28;3.95;;;2.25;;
84472;SDS011;74698;42.992;0.116;2024-01-30T12:20:08;3.30;;;2.60;;
84472;SDS011;74698;42.992;0.116;2024-01-30T12:25:04;3.13;;;2.42;;
84472;SDS011;74698;42.992;0.116;2024-01-30T12:27:31;5.40;;;2.83;;
84472;SDS011;74698;42.992;0.116;2024-01-30T12:29:57;5.43;;;2.40;;
84472;SDS011;74698;42.992;0.116;2024-01-30T12:32:23;6.43;;;3.35;;
84472;SDS011;74698;42.992;0.116;2024-01-30T12:34:49;3.65;;;2.50;;
84472;SDS011;74698;42.992;0.116;2024-01-30T12:37:15;4.38;;;2.53;;
84472;SDS011;74698;42.992;0.116;2024-01-30T12:39:47;4.72;;;2.60;;
84472;SDS011;74698;42.992;0.116;2024-01-30T12:42:14;5.63;;;2.75;;
84472;SDS011;74698;42.992;0.116;2024-01-30T12:44:40;4.88;;;2.22;;
84472;SDS011;74698;42.992;0.116;2024-01-30T12:47:08;4.90;;;2.70;;
84472;SDS011;74698;42.992;0.116;2024-01-30T12:49:35;4.57;;;2.25;;
84472;SDS011;74698;42.992;0.116;2024-01-30T12:52:01;3.78;;;2.17;;
84472;SDS011;74698;42.992;0.116;2024-01-30T12:54:27;3.85;;;2.47;;
84472;SDS011;74698;42.992;0.116;2024-01-30T12:56:53;5.25;;;2.42;;
84472;SDS011;74698;42.992;0.116;2024-01-30T12:59:21;3.72;;;2.38;;
84472;SDS011;74698;42.992;0.116;2024-01-30T13:01:47;5.75;;;2.90;;
84472;SDS011;74698;42.992;0.116;2024-01-30T13:04:13;3.03;;;2.03;;
84472;SDS011;74698;42.992;0.116;2024-01-30T13:06:40;4.18;;;2.40;;
84472;SDS011;74698;42.992;0.116;2024-01-30T13:09:06;6.82;;;2.55;;
84472;SDS011;74698;42.992;0.116;2024-01-30T13:11:32;4.25;;;2.20;;
84472;SDS011;74698;42.992;0.116;2024-01-30T13:13:59;5.43;;;2.85;;
84472;SDS011;74698;42.992;0.116;2024-01-30T13:16:25;4.95;;;2.88;;
84472;SDS011;74698;42.992;0.116;2024-01-30T13:18:54;6.25;;;3.67;;
84472;SDS011;74698;42.992;0.116;2024-01-30T13:21:20;4.63;;;3.35;;
84472;SDS011;74698;42.992;0.116;2024-01-30T13:23:46;5.85;;;3.92;;
84472;SDS011;74698;42.992;0.116;2024-01-30T13:26:13;4.35;;;2.70;;
84472;SDS011;74698;42.992;0.116;2024-01-30T13:28:39;7.10;;;4.35;;
84472;SDS011;74698;42.992;0.116;2024-01-30T13:31:05;9.75;;;6.75;;
84472;SDS011;74698;42.992;0.116;2024-01-30T13:33:31;5.05;;;3.65;;
84472;SDS011;74698;42.992;0.116;2024-01-30T13:35:57;9.68;;;5.03;;
84472;SDS011;74698;42.992;0.116;2024-01-30T13:38:23;14.52;;;9.82;;
84472;SDS011;74698;42.992;0.116;2024-01-30T13:40:49;16.50;;;13.60;;
84472;SDS011;74698;42.992;0.116;2024-01-30T13:43:15;6.65;;;4.28;;
84472;SDS011;74698;42.992;0.116;2024-01-30T13:45:42;6.55;;;2.78;;
84472;SDS011;74698;42.992;0.116;2024-01-30T13:48:08;5.40;;;2.70;;
84472;SDS011;74698;42.992;0.116;2024-01-30T13:50:35;5.88;;;2.53;;
84472;SDS011;74698;42.992;0.116;2024-01-30T13:53:01;7.75;;;4.43;;
84472;SDS011;74698;42.992;0.116;2024-01-30T13:55:27;5.65;;;3.95;;
84472;SDS011;74698;42.992;0.116;2024-01-30T13:57:53;4.65;;;2.97;;
84472;SDS011;74698;42.992;0.116;2024-01-30T14:00:20;3.63;;;2.70;;
84472;SDS011;74698;42.992;0.116;2024-01-30T14:02:47;10.00;;;3.92;;
84472;SDS011;74698;42.992;0.116;2024-01-30T14:05:14;4.85;;;3.33;;
84472;SDS011;74698;42.992;0.116;2024-01-30T14:07:40;5.00;;;2.95;;
84472;SDS011;74698;42.992;0.116;2024-01-30T14:10:09;7.28;;;3.40;;
84472;SDS011;74698;42.992;0.116;2024-01-30T14:12:38;5.47;;;3.30;;
84472;SDS011;74698;42.992;0.116;2024-01-30T14:15:04;5.15;;;2.90;;
84472;SDS011;74698;42.992;0.116;2024-01-30T14:17:31;8.27;;;2.92;;
84472;SDS011;74698;42.992;0.116;2024-01-30T14:19:57;4.85;;;2.85;;
84472;SDS011;74698;42.992;0.116;2024-01-30T14:22:22;4.40;;;2.72;;
84472;SDS011;74698;42.992;0.116;2024-01-30T14:24:48;6.57;;;3.30;;
84472;SDS011;74698;42.992;0.116;2024-01-30T14:27:14;6.03;;;2.92;;
84472;SDS011;74698;42.992;0.116;2024-01-30T14:29:40;6.68;;;3.00;;
84472;SDS011;74698;42.992;0.116;2024-01-30T14:32:08;6.45;;;2.97;;
84472;SDS011;74698;42.992;0.116;2024-01-30T14:34:34;5.10;;;3.05;;
84472;SDS011;74698;42.992;0.116;2024-01-30T14:37:00;5.82;;;2.72;;
84472;SDS011;74698;42.992;0.116;2024-01-30T14:39:26;6.15;;;3.03;;
84472;SDS011;74698;42.992;0.116;2024-01-30T14:41:52;5.43;;;3.10;;
84472;SDS011;74698;42.992;0.116;2024-01-30T14:44:18;4.28;;;2.80;;
84472;SDS011;74698;42.992;0.116;2024-01-30T14:46:44;6.55;;;3.97;;
84472;SDS011;74698;42.992;0.116;2024-01-30T14:49:11;4.70;;;2.75;;
84472;SDS011;74698;42.992;0.116;2024-01-30T14:51:37;7.43;;;2.90;;